sensor_id;sensor_type;location;lat;lon;timestamp;P1;durP1;ratioP1;P2;durP2;ratioP2
61785;SDS011;47692;53.714;11.372;2023-08-12T00:00:00;3.67;;;2.30;;
61785;SDS011;47692;53.714;11.372;2023-08-12T00:02:36;3.58;;;2.55;;
61785;SDS011;47692;53.714;11.372;2023-08-12T00:05:03;3.97;;;2.38;;
61785;SDS011;47692;53.714;11.372;2023-08-12T00:07:28;4.38;;;3.03;;
61785;SDS011;47692;53.714;11.372;2023-08-12T00:09:54;4.47;;;2.42;;
61785;SDS011;47692;53.714;11.372;2023-08-12T00:12:21;6.20;;;2.75;;
61785;SDS011;47692;53.714;11.372;2023-08-12T00:14:46;5.50;;;2.40;;
61785;SDS011;47692;53.714;11.372;2023-08-12T00:17:11;5.25;;;2.78;;
61785;SDS011;47692;53.714;11.372;2023-08-12T00:19:37;3.80;;;2.53;;
61785;SDS011;47692;53.714;11.372;2023-08-12T00:22:02;5.43;;;2.50;;
61785;SDS011;47692;53.714;11.372;2023-08-12T00:24:29;6.13;;;2.72;;
61785;SDS011;47692;53.714;11.372;2023-08-12T00:26:54;4.38;;;2.42;;
61785;SDS011;47692;53.714;11.372;2023-08-12T00:29:19;3.45;;;2.40;;
61785;SDS011;47692;53.714;11.372;2023-08-12T00:31:45;3.38;;;2.55;;
61785;SDS011;47692;53.714;11.372;2023-08-12T00:34:10;3.35;;;2.40;;
61785;SDS011;47692;53.714;11.372;2023-08-12T00:36:35;3.35;;;2.65;;
61785;SDS011;47692;53.714;11.372;2023-08-12T00:39:02;3.10;;;2.40;;
61785;SDS011;47692;53.714;11.372;2023-08-12T00:41:28;2.95;;;2.42;;
61785;SDS011;47692;53.714;11.372;2023-08-12T00:43:54;5.13;;;2.42;;
61785;SDS011;47692;53.714;11.372;2023-08-12T00:46:19;3.08;;;2.55;;
61785;SDS011;47692;53.714;11.372;2023-08-12T00:48:45;4.65;;;2.40;;
61785;SDS011;47692;53.714;11.372;2023-08-12T00:51:11;3.85;;;2.38;;
61785;SDS011;47692;53.714;11.372;2023-08-12T00:53:36;3.75;;;2.72;;
61785;SDS011;47692;53.714;11.372;2023-08-12T00:56:02;5.70;;;2.55;;
61785;SDS011;47692;53.714;11.372;2023-08-12T00:58:28;3.50;;;2.50;;
61785;SDS011;47692;53.714;11.372;2023-08-12T01:00:54;5.20;;;2.45;;
61785;SDS011;47692;53.714;11.372;2023-08-12T01:03:19;3.20;;;2.17;;
61785;SDS011;47692;53.714;11.372;2023-08-12T01:05:45;5.25;;;2.25;;
61785;SDS011;47692;53.714;11.372;2023-08-12T01:08:11;5.53;;;2.28;;
61785;SDS011;47692;53.714;11.372;2023-08-12T01:10:36;2.72;;;2.08;;
61785;SDS011;47692;53.714;11.372;2023-08-12T01:13:19;3.33;;;2.13;;
61785;SDS011;47692;53.714;11.372;2023-08-12T01:15:55;2.95;;;2.28;;
61785;SDS011;47692;53.714;11.372;2023-08-12T01:18:23;3.50;;;2.40;;
61785;SDS011;47692;53.714;11.372;2023-08-12T01:20:49;3.13;;;2.25;;
61785;SDS011;47692;53.714;11.372;2023-08-12T01:23:15;4.22;;;2.17;;
61785;SDS011;47692;53.714;11.372;2023-08-12T01:25:41;4.43;;;2.58;;
61785;SDS011;47692;53.714;11.372;2023-08-12T01:28:07;3.78;;;2.20;;
61785;SDS011;47692;53.714;11.372;2023-08-12T01:30:33;3.88;;;2.67;;
61785;SDS011;47692;53.714;11.372;2023-08-12T01:35:55;2.72;;;1.90;;
61785;SDS011;47692;53.714;11.372;2023-08-12T01:38:31;4.55;;;2.78;;
61785;SDS011;47692;53.714;11.372;2023-08-12T01:40:58;4.03;;;2.10;;
61785;SDS011;47692;53.714;11.372;2023-08-12T01:43:25;3.47;;;2.00;;
61785;SDS011;47692;53.714;11.372;2023-08-12T01:45:51;4.50;;;2.30;;
61785;SDS011;47692;53.714;11.372;2023-08-12T01:48:16;3.58;;;2.30;;
61785;SDS011;47692;53.714;11.372;2023-08-12T01:50:41;3.45;;;2.53;;
61785;SDS011;47692;53.714;11.372;2023-08-12T01:53:12;3.08;;;2.25;;
61785;SDS011;47692;53.714;11.372;2023-08-12T01:55:37;3.05;;;1.92;;
61785;SDS011;47692;53.714;11.372;2023-08-12T01:58:02;3.25;;;2.13;;
61785;SDS011;47692;53.714;11.372;2023-08-12T02:00:28;4.90;;;2.20;;
61785;SDS011;47692;53.714;11.372;2023-08-12T02:02:53;4.13;;;2.00;;
61785;SDS011;47692;53.714;11.372;2023-08-12T02:05:19;4.13;;;2.40;;
61785;SDS011;47692;53.714;11.372;2023-08-12T02:07:44;4.68;;;2.22;;
61785;SDS011;47692;53.714;11.372;2023-08-12T02:10:10;2.90;;;2.17;;
61785;SDS011;47692;53.714;11.372;2023-08-12T02:12:35;4.78;;;2.30;;
61785;SDS011;47692;53.714;11.372;2023-08-12T02:15:00;4.35;;;2.20;;
61785;SDS011;47692;53.714;11.372;2023-08-12T02:17:26;5.00;;;2.22;;
61785;SDS011;47692;53.714;11.372;2023-08-12T02:19:51;3.15;;;2.10;;
61785;SDS011;47692;53.714;11.372;2023-08-12T02:22:16;4.80;;;2.25;;
61785;SDS011;47692;53.714;11.372;2023-08-12T02:24:41;3.42;;;2.60;;
61785;SDS011;47692;53.714;11.372;2023-08-12T02:27:07;2.50;;;1.95;;
61785;SDS011;47692;53.714;11.372;2023-08-12T02:29:32;3.47;;;2.10;;
61785;SDS011;47692;53.714;11.372;2023-08-12T02:31:58;5.15;;;2.58;;
61785;SDS011;47692;53.714;11.372;2023-08-12T02:34:23;4.95;;;2.30;;
61785;SDS011;47692;53.714;11.372;2023-08-12T02:36:48;4.35;;;2.42;;
61785;SDS011;47692;53.714;11.372;2023-08-12T02:39:13;2.70;;;2.15;;
61785;SDS011;47692;53.714;11.372;2023-08-12T02:41:39;2.85;;;1.80;;
61785;SDS011;47692;53.714;11.372;2023-08-12T02:44:04;2.97;;;2.00;;
61785;SDS011;47692;53.714;11.372;2023-08-12T02:46:30;3.65;;;2.40;;
61785;SDS011;47692;53.714;11.372;2023-08-12T02:48:55;3.10;;;2.33;;
61785;SDS011;47692;53.714;11.372;2023-08-12T02:51:20;2.90;;;1.90;;
61785;SDS011;47692;53.714;11.372;2023-08-12T02:53:45;5.07;;;2.30;;
61785;SDS011;47692;53.714;11.372;2023-08-12T02:56:11;6.18;;;2.20;;
61785;SDS011;47692;53.714;11.372;2023-08-12T02:58:36;3.63;;;2.17;;
61785;SDS011;47692;53.714;11.372;2023-08-12T03:01:02;4.85;;;2.20;;
61785;SDS011;47692;53.714;11.372;2023-08-12T03:03:29;2.78;;;2.05;;
61785;SDS011;47692;53.714;11.372;2023-08-12T03:05:54;3.47;;;2.20;;
61785;SDS011;47692;53.714;11.372;2023-08-12T03:08:19;5.60;;;2.15;;
61785;SDS011;47692;53.714;11.372;2023-08-12T03:10:45;3.15;;;2.00;;
61785;SDS011;47692;53.714;11.372;2023-08-12T03:13:10;4.00;;;2.22;;
61785;SDS011;47692;53.714;11.372;2023-08-12T03:15:38;5.50;;;2.10;;
61785;SDS011;47692;53.714;11.372;2023-08-12T03:18:05;3.63;;;2.28;;
61785;SDS011;47692;53.714;11.372;2023-08-12T03:20:30;5.10;;;2.30;;
61785;SDS011;47692;53.714;11.372;2023-08-12T03:22:55;3.20;;;2.10;;
61785;SDS011;47692;53.714;11.372;2023-08-12T03:25:21;3.42;;;2.30;;
61785;SDS011;47692;53.714;11.372;2023-08-12T03:27:47;3.22;;;2.30;;
61785;SDS011;47692;53.714;11.372;2023-08-12T03:30:12;3.15;;;2.10;;
61785;SDS011;47692;53.714;11.372;2023-08-12T03:32:37;4.68;;;2.53;;
61785;SDS011;47692;53.714;11.372;2023-08-12T03:35:03;3.65;;;2.20;;
61785;SDS011;47692;53.714;11.372;2023-08-12T03:37:29;3.28;;;2.20;;
61785;SDS011;47692;53.714;11.372;2023-08-12T03:39:54;3.25;;;2.15;;
61785;SDS011;47692;53.714;11.372;2023-08-12T03:42:19;4.38;;;2.28;;
61785;SDS011;47692;53.714;11.372;2023-08-12T03:44:44;4.70;;;2.30;;
61785;SDS011;47692;53.714;11.372;2023-08-12T03:47:10;4.28;;;2.30;;
61785;SDS011;47692;53.714;11.372;2023-08-12T03:49:36;5.00;;;2.70;;
61785;SDS011;47692;53.714;11.372;2023-08-12T03:52:02;3.05;;;2.08;;
61785;SDS011;47692;53.714;11.372;2023-08-12T03:54:28;3.75;;;2.42;;
61785;SDS011;47692;53.714;11.372;2023-08-12T03:56:53;2.88;;;2.40;;
61785;SDS011;47692;53.714;11.372;2023-08-12T03:59:18;2.78;;;2.00;;
61785;SDS011;47692;53.714;11.372;2023-08-12T04:01:44;3.55;;;2.03;;
61785;SDS011;47692;53.714;11.372;2023-08-12T04:04:09;3.60;;;2.33;;
61785;SDS011;47692;53.714;11.372;2023-08-12T04:06:34;5.90;;;2.20;;
61785;SDS011;47692;53.714;11.372;2023-08-12T04:08:59;4.07;;;2.03;;
61785;SDS011;47692;53.714;11.372;2023-08-12T04:11:25;6.72;;;2.60;;
61785;SDS011;47692;53.714;11.372;2023-08-12T04:13:50;3.33;;;2.15;;
61785;SDS011;47692;53.714;11.372;2023-08-12T04:16:15;2.85;;;2.10;;
61785;SDS011;47692;53.714;11.372;2023-08-12T04:18:41;3.17;;;2.28;;
61785;SDS011;47692;53.714;11.372;2023-08-12T04:21:07;3.25;;;2.10;;
61785;SDS011;47692;53.714;11.372;2023-08-12T04:23:32;2.55;;;2.08;;
61785;SDS011;47692;53.714;11.372;2023-08-12T04:25:58;4.47;;;2.05;;
61785;SDS011;47692;53.714;11.372;2023-08-12T04:28:24;4.75;;;1.95;;
61785;SDS011;47692;53.714;11.372;2023-08-12T04:30:50;4.30;;;2.33;;
61785;SDS011;47692;53.714;11.372;2023-08-12T04:33:17;3.40;;;2.20;;
61785;SDS011;47692;53.714;11.372;2023-08-12T04:35:44;2.85;;;2.13;;
61785;SDS011;47692;53.714;11.372;2023-08-12T04:38:10;2.42;;;1.85;;
61785;SDS011;47692;53.714;11.372;2023-08-12T04:40:38;3.92;;;1.92;;
61785;SDS011;47692;53.714;11.372;2023-08-12T04:43:04;3.50;;;1.92;;
61785;SDS011;47692;53.714;11.372;2023-08-12T04:45:30;2.78;;;2.00;;
61785;SDS011;47692;53.714;11.372;2023-08-12T04:47:55;3.13;;;1.85;;
61785;SDS011;47692;53.714;11.372;2023-08-12T04:50:20;2.65;;;2.10;;
61785;SDS011;47692;53.714;11.372;2023-08-12T04:52:46;4.20;;;1.92;;
61785;SDS011;47692;53.714;11.372;2023-08-12T04:55:11;3.53;;;1.95;;
61785;SDS011;47692;53.714;11.372;2023-08-12T04:57:37;4.38;;;2.30;;
61785;SDS011;47692;53.714;11.372;2023-08-12T05:00:03;3.58;;;2.10;;
61785;SDS011;47692;53.714;11.372;2023-08-12T05:02:29;3.63;;;2.17;;
61785;SDS011;47692;53.714;11.372;2023-08-12T05:04:54;5.93;;;2.63;;
61785;SDS011;47692;53.714;11.372;2023-08-12T05:07:19;4.38;;;2.40;;
61785;SDS011;47692;53.714;11.372;2023-08-12T05:09:45;3.33;;;2.08;;
61785;SDS011;47692;53.714;11.372;2023-08-12T05:12:10;3.92;;;2.40;;
61785;SDS011;47692;53.714;11.372;2023-08-12T05:14:36;3.80;;;2.00;;
61785;SDS011;47692;53.714;11.372;2023-08-12T05:17:02;4.30;;;2.22;;
61785;SDS011;47692;53.714;11.372;2023-08-12T05:19:28;4.10;;;2.05;;
61785;SDS011;47692;53.714;11.372;2023-08-12T05:21:53;3.35;;;2.22;;
61785;SDS011;47692;53.714;11.372;2023-08-12T05:24:18;4.60;;;2.60;;
61785;SDS011;47692;53.714;11.372;2023-08-12T05:26:44;4.63;;;2.67;;
61785;SDS011;47692;53.714;11.372;2023-08-12T05:29:09;3.33;;;2.60;;
61785;SDS011;47692;53.714;11.372;2023-08-12T05:31:34;5.32;;;2.75;;
61785;SDS011;47692;53.714;11.372;2023-08-12T05:33:59;4.18;;;2.45;;
61785;SDS011;47692;53.714;11.372;2023-08-12T05:36:25;4.35;;;2.13;;
61785;SDS011;47692;53.714;11.372;2023-08-12T05:38:50;3.08;;;2.13;;
61785;SDS011;47692;53.714;11.372;2023-08-12T05:41:16;4.28;;;2.70;;
61785;SDS011;47692;53.714;11.372;2023-08-12T05:43:41;5.45;;;2.45;;
61785;SDS011;47692;53.714;11.372;2023-08-12T05:46:07;3.72;;;2.45;;
61785;SDS011;47692;53.714;11.372;2023-08-12T05:48:32;3.88;;;2.70;;
61785;SDS011;47692;53.714;11.372;2023-08-12T05:50:57;4.88;;;2.40;;
61785;SDS011;47692;53.714;11.372;2023-08-12T05:53:22;5.22;;;2.42;;
61785;SDS011;47692;53.714;11.372;2023-08-12T05:55:48;3.97;;;2.42;;
61785;SDS011;47692;53.714;11.372;2023-08-12T05:58:13;6.00;;;2.90;;
61785;SDS011;47692;53.714;11.372;2023-08-12T06:00:38;4.95;;;2.60;;
61785;SDS011;47692;53.714;11.372;2023-08-12T06:03:04;3.95;;;2.20;;
61785;SDS011;47692;53.714;11.372;2023-08-12T06:05:29;6.25;;;2.80;;
61785;SDS011;47692;53.714;11.372;2023-08-12T06:07:54;3.75;;;2.40;;
61785;SDS011;47692;53.714;11.372;2023-08-12T06:10:20;4.82;;;2.53;;
61785;SDS011;47692;53.714;11.372;2023-08-12T06:12:45;4.00;;;2.30;;
61785;SDS011;47692;53.714;11.372;2023-08-12T06:15:10;5.93;;;2.58;;
61785;SDS011;47692;53.714;11.372;2023-08-12T06:17:36;4.47;;;2.45;;
61785;SDS011;47692;53.714;11.372;2023-08-12T06:20:01;4.82;;;2.88;;
61785;SDS011;47692;53.714;11.372;2023-08-12T06:22:27;4.07;;;2.22;;
61785;SDS011;47692;53.714;11.372;2023-08-12T06:24:52;4.80;;;2.50;;
61785;SDS011;47692;53.714;11.372;2023-08-12T06:27:17;7.15;;;2.83;;
61785;SDS011;47692;53.714;11.372;2023-08-12T06:29:45;5.15;;;3.05;;
61785;SDS011;47692;53.714;11.372;2023-08-12T06:32:10;4.22;;;2.75;;
61785;SDS011;47692;53.714;11.372;2023-08-12T06:34:37;5.10;;;3.00;;
61785;SDS011;47692;53.714;11.372;2023-08-12T06:37:03;3.83;;;2.22;;
61785;SDS011;47692;53.714;11.372;2023-08-12T06:39:28;4.15;;;2.67;;
61785;SDS011;47692;53.714;11.372;2023-08-12T06:41:53;3.78;;;2.45;;
61785;SDS011;47692;53.714;11.372;2023-08-12T06:44:20;4.53;;;2.58;;
61785;SDS011;47692;53.714;11.372;2023-08-12T06:46:46;5.03;;;2.63;;
61785;SDS011;47692;53.714;11.372;2023-08-12T06:49:11;5.40;;;2.60;;
61785;SDS011;47692;53.714;11.372;2023-08-12T06:51:37;4.22;;;2.88;;
61785;SDS011;47692;53.714;11.372;2023-08-12T06:54:02;4.35;;;2.60;;
61785;SDS011;47692;53.714;11.372;2023-08-12T06:56:28;7.22;;;2.92;;
61785;SDS011;47692;53.714;11.372;2023-08-12T06:58:53;5.75;;;2.88;;
61785;SDS011;47692;53.714;11.372;2023-08-12T07:01:18;4.38;;;2.83;;
61785;SDS011;47692;53.714;11.372;2023-08-12T07:03:44;7.18;;;3.38;;
61785;SDS011;47692;53.714;11.372;2023-08-12T07:06:09;3.47;;;2.85;;
61785;SDS011;47692;53.714;11.372;2023-08-12T07:08:34;6.03;;;2.97;;
61785;SDS011;47692;53.714;11.372;2023-08-12T07:11:00;4.22;;;2.92;;
61785;SDS011;47692;53.714;11.372;2023-08-12T07:13:25;4.45;;;2.85;;
61785;SDS011;47692;53.714;11.372;2023-08-12T07:15:50;3.90;;;2.42;;
61785;SDS011;47692;53.714;11.372;2023-08-12T07:18:16;7.03;;;3.00;;
61785;SDS011;47692;53.714;11.372;2023-08-12T07:20:41;9.27;;;3.05;;
61785;SDS011;47692;53.714;11.372;2023-08-12T07:23:06;5.53;;;2.95;;
61785;SDS011;47692;53.714;11.372;2023-08-12T07:25:32;3.53;;;2.85;;
61785;SDS011;47692;53.714;11.372;2023-08-12T07:27:57;5.50;;;2.70;;
61785;SDS011;47692;53.714;11.372;2023-08-12T07:30:23;3.90;;;2.63;;
61785;SDS011;47692;53.714;11.372;2023-08-12T07:32:48;5.20;;;2.80;;
61785;SDS011;47692;53.714;11.372;2023-08-12T07:35:14;4.88;;;2.97;;
61785;SDS011;47692;53.714;11.372;2023-08-12T07:37:39;4.28;;;2.60;;
61785;SDS011;47692;53.714;11.372;2023-08-12T07:40:05;4.32;;;2.60;;
61785;SDS011;47692;53.714;11.372;2023-08-12T07:42:30;4.03;;;2.63;;
61785;SDS011;47692;53.714;11.372;2023-08-12T07:44:56;3.90;;;2.67;;
61785;SDS011;47692;53.714;11.372;2023-08-12T07:47:21;3.88;;;2.50;;
61785;SDS011;47692;53.714;11.372;2023-08-12T07:49:46;5.38;;;2.60;;
61785;SDS011;47692;53.714;11.372;2023-08-12T07:52:11;7.53;;;2.47;;
61785;SDS011;47692;53.714;11.372;2023-08-12T07:54:37;4.45;;;2.92;;
61785;SDS011;47692;53.714;11.372;2023-08-12T07:57:02;4.80;;;3.50;;
61785;SDS011;47692;53.714;11.372;2023-08-12T07:59:28;5.43;;;3.17;;
61785;SDS011;47692;53.714;11.372;2023-08-12T08:01:54;6.75;;;3.05;;
61785;SDS011;47692;53.714;11.372;2023-08-12T08:04:19;6.70;;;2.83;;
61785;SDS011;47692;53.714;11.372;2023-08-12T08:06:44;4.95;;;2.80;;
61785;SDS011;47692;53.714;11.372;2023-08-12T08:09:10;4.95;;;2.72;;
61785;SDS011;47692;53.714;11.372;2023-08-12T08:11:35;5.55;;;3.28;;
61785;SDS011;47692;53.714;11.372;2023-08-12T08:14:01;4.40;;;3.00;;
61785;SDS011;47692;53.714;11.372;2023-08-12T08:16:27;6.03;;;2.92;;
61785;SDS011;47692;53.714;11.372;2023-08-12T08:18:52;8.35;;;3.05;;
61785;SDS011;47692;53.714;11.372;2023-08-12T08:21:17;5.90;;;3.25;;
61785;SDS011;47692;53.714;11.372;2023-08-12T08:23:43;9.00;;;3.20;;
61785;SDS011;47692;53.714;11.372;2023-08-12T08:26:09;5.60;;;3.03;;
61785;SDS011;47692;53.714;11.372;2023-08-12T08:28:35;6.55;;;3.28;;
61785;SDS011;47692;53.714;11.372;2023-08-12T08:31:00;6.18;;;3.33;;
61785;SDS011;47692;53.714;11.372;2023-08-12T08:33:25;6.05;;;3.55;;
61785;SDS011;47692;53.714;11.372;2023-08-12T08:35:51;4.93;;;3.22;;
61785;SDS011;47692;53.714;11.372;2023-08-12T08:38:16;6.97;;;3.40;;
61785;SDS011;47692;53.714;11.372;2023-08-12T08:40:42;7.30;;;3.80;;
61785;SDS011;47692;53.714;11.372;2023-08-12T08:43:08;7.05;;;3.28;;
61785;SDS011;47692;53.714;11.372;2023-08-12T08:45:33;7.82;;;3.22;;
61785;SDS011;47692;53.714;11.372;2023-08-12T08:47:59;6.57;;;3.15;;
61785;SDS011;47692;53.714;11.372;2023-08-12T08:50:26;6.32;;;3.10;;
61785;SDS011;47692;53.714;11.372;2023-08-12T08:52:55;6.28;;;3.72;;
61785;SDS011;47692;53.714;11.372;2023-08-12T08:55:21;6.35;;;3.95;;
61785;SDS011;47692;53.714;11.372;2023-08-12T08:57:47;7.35;;;3.55;;
61785;SDS011;47692;53.714;11.372;2023-08-12T09:00:14;5.28;;;3.78;;
61785;SDS011;47692;53.714;11.372;2023-08-12T09:02:41;4.72;;;3.50;;
61785;SDS011;47692;53.714;11.372;2023-08-12T09:05:08;5.63;;;3.35;;
61785;SDS011;47692;53.714;11.372;2023-08-12T09:07:33;6.30;;;3.95;;
61785;SDS011;47692;53.714;11.372;2023-08-12T09:09:59;7.60;;;3.60;;
61785;SDS011;47692;53.714;11.372;2023-08-12T09:12:25;5.45;;;3.40;;
61785;SDS011;47692;53.714;11.372;2023-08-12T09:14:51;6.07;;;3.33;;
61785;SDS011;47692;53.714;11.372;2023-08-12T09:17:16;7.88;;;3.50;;
61785;SDS011;47692;53.714;11.372;2023-08-12T09:19:42;5.68;;;3.13;;
61785;SDS011;47692;53.714;11.372;2023-08-12T09:22:07;4.32;;;3.40;;
61785;SDS011;47692;53.714;11.372;2023-08-12T09:24:36;5.22;;;3.17;;
61785;SDS011;47692;53.714;11.372;2023-08-12T09:27:02;6.88;;;3.55;;
61785;SDS011;47692;53.714;11.372;2023-08-12T09:29:31;5.05;;;2.85;;
61785;SDS011;47692;53.714;11.372;2023-08-12T09:32:05;6.73;;;3.33;;
61785;SDS011;47692;53.714;11.372;2023-08-12T09:34:32;6.53;;;3.30;;
61785;SDS011;47692;53.714;11.372;2023-08-12T09:36:58;5.32;;;3.38;;
61785;SDS011;47692;53.714;11.372;2023-08-12T09:39:23;7.20;;;3.58;;
61785;SDS011;47692;53.714;11.372;2023-08-12T09:41:49;8.40;;;3.92;;
61785;SDS011;47692;53.714;11.372;2023-08-12T09:44:14;5.28;;;3.53;;
61785;SDS011;47692;53.714;11.372;2023-08-12T09:46:40;5.13;;;3.38;;
61785;SDS011;47692;53.714;11.372;2023-08-12T09:49:06;6.93;;;3.92;;
61785;SDS011;47692;53.714;11.372;2023-08-12T09:51:35;9.90;;;3.20;;
61785;SDS011;47692;53.714;11.372;2023-08-12T09:54:01;5.95;;;3.05;;
61785;SDS011;47692;53.714;11.372;2023-08-12T09:56:27;7.63;;;3.38;;
61785;SDS011;47692;53.714;11.372;2023-08-12T09:58:58;6.13;;;3.70;;
61785;SDS011;47692;53.714;11.372;2023-08-12T10:01:24;5.00;;;3.58;;
61785;SDS011;47692;53.714;11.372;2023-08-12T10:03:50;6.25;;;3.30;;
61785;SDS011;47692;53.714;11.372;2023-08-12T10:06:18;4.95;;;3.50;;
61785;SDS011;47692;53.714;11.372;2023-08-12T10:08:47;5.13;;;3.15;;
61785;SDS011;47692;53.714;11.372;2023-08-12T10:11:14;6.05;;;3.30;;
61785;SDS011;47692;53.714;11.372;2023-08-12T10:13:40;6.57;;;3.70;;
61785;SDS011;47692;53.714;11.372;2023-08-12T10:16:06;5.03;;;3.67;;
61785;SDS011;47692;53.714;11.372;2023-08-12T10:18:33;5.43;;;3.35;;
61785;SDS011;47692;53.714;11.372;2023-08-12T10:21:00;4.35;;;3.50;;
61785;SDS011;47692;53.714;11.372;2023-08-12T10:23:25;4.55;;;3.28;;
61785;SDS011;47692;53.714;11.372;2023-08-12T10:25:55;5.28;;;3.75;;
61785;SDS011;47692;53.714;11.372;2023-08-12T10:28:24;5.65;;;3.78;;
61785;SDS011;47692;53.714;11.372;2023-08-12T10:30:50;5.00;;;3.42;;
61785;SDS011;47692;53.714;11.372;2023-08-12T10:33:17;5.80;;;3.70;;
61785;SDS011;47692;53.714;11.372;2023-08-12T10:35:47;5.63;;;3.50;;
61785;SDS011;47692;53.714;11.372;2023-08-12T10:38:14;4.10;;;3.22;;
61785;SDS011;47692;53.714;11.372;2023-08-12T10:40:43;5.35;;;3.83;;
61785;SDS011;47692;53.714;11.372;2023-08-12T10:43:09;4.07;;;3.33;;
61785;SDS011;47692;53.714;11.372;2023-08-12T10:50:46;6.63;;;3.72;;
61785;SDS011;47692;53.714;11.372;2023-08-12T10:53:47;7.63;;;3.60;;
61785;SDS011;47692;53.714;11.372;2023-08-12T10:58:45;4.50;;;3.22;;
61785;SDS011;47692;53.714;11.372;2023-08-12T11:01:20;5.93;;;3.33;;
61785;SDS011;47692;53.714;11.372;2023-08-12T11:03:47;5.05;;;3.30;;
61785;SDS011;47692;53.714;11.372;2023-08-12T11:06:13;5.45;;;3.40;;
61785;SDS011;47692;53.714;11.372;2023-08-12T11:08:48;7.63;;;3.72;;
61785;SDS011;47692;53.714;11.372;2023-08-12T11:11:23;5.05;;;3.15;;
61785;SDS011;47692;53.714;11.372;2023-08-12T11:13:52;4.47;;;2.97;;
61785;SDS011;47692;53.714;11.372;2023-08-12T11:16:30;7.30;;;3.60;;
61785;SDS011;47692;53.714;11.372;2023-08-12T11:18:59;5.15;;;3.67;;
61785;SDS011;47692;53.714;11.372;2023-08-12T11:21:24;5.22;;;3.30;;
61785;SDS011;47692;53.714;11.372;2023-08-12T11:23:50;5.75;;;4.13;;
61785;SDS011;47692;53.714;11.372;2023-08-12T11:26:19;6.28;;;3.50;;
61785;SDS011;47692;53.714;11.372;2023-08-12T11:28:45;7.13;;;3.50;;
61785;SDS011;47692;53.714;11.372;2023-08-12T11:31:12;7.30;;;3.60;;
61785;SDS011;47692;53.714;11.372;2023-08-12T11:33:37;5.18;;;3.65;;
61785;SDS011;47692;53.714;11.372;2023-08-12T11:36:02;7.88;;;3.60;;
61785;SDS011;47692;53.714;11.372;2023-08-12T11:38:28;17.00;;;6.40;;
61785;SDS011;47692;53.714;11.372;2023-08-12T11:40:53;11.40;;;5.95;;
61785;SDS011;47692;53.714;11.372;2023-08-12T11:43:20;10.27;;;5.30;;
61785;SDS011;47692;53.714;11.372;2023-08-12T11:45:47;23.83;;;8.02;;
61785;SDS011;47692;53.714;11.372;2023-08-12T11:48:12;6.55;;;4.15;;
61785;SDS011;47692;53.714;11.372;2023-08-12T11:50:38;7.22;;;4.57;;
61785;SDS011;47692;53.714;11.372;2023-08-12T11:53:04;10.45;;;5.03;;
61785;SDS011;47692;53.714;11.372;2023-08-12T11:55:29;46.60;;;15.40;;
61785;SDS011;47692;53.714;11.372;2023-08-12T11:57:55;13.10;;;6.25;;
61785;SDS011;47692;53.714;11.372;2023-08-12T12:00:20;11.43;;;4.47;;
61785;SDS011;47692;53.714;11.372;2023-08-12T12:02:47;11.30;;;5.38;;
61785;SDS011;47692;53.714;11.372;2023-08-12T12:05:14;12.30;;;4.80;;
61785;SDS011;47692;53.714;11.372;2023-08-12T12:07:41;20.60;;;7.93;;
61785;SDS011;47692;53.714;11.372;2023-08-12T12:10:06;8.95;;;4.60;;
61785;SDS011;47692;53.714;11.372;2023-08-12T12:12:33;6.32;;;4.10;;
61785;SDS011;47692;53.714;11.372;2023-08-12T12:15:00;19.42;;;8.43;;
61785;SDS011;47692;53.714;11.372;2023-08-12T12:17:26;6.00;;;3.47;;
61785;SDS011;47692;53.714;11.372;2023-08-12T12:19:52;6.05;;;3.85;;
61785;SDS011;47692;53.714;11.372;2023-08-12T12:22:19;7.00;;;3.67;;
61785;SDS011;47692;53.714;11.372;2023-08-12T12:24:45;5.43;;;3.22;;
61785;SDS011;47692;53.714;11.372;2023-08-12T12:27:11;5.43;;;3.00;;
61785;SDS011;47692;53.714;11.372;2023-08-12T12:29:37;5.60;;;3.65;;
61785;SDS011;47692;53.714;11.372;2023-08-12T12:32:03;6.05;;;3.28;;
61785;SDS011;47692;53.714;11.372;2023-08-12T12:34:29;9.43;;;3.47;;
61785;SDS011;47692;53.714;11.372;2023-08-12T12:36:55;5.53;;;3.30;;
61785;SDS011;47692;53.714;11.372;2023-08-12T12:39:20;6.03;;;3.15;;
61785;SDS011;47692;53.714;11.372;2023-08-12T12:41:47;5.22;;;3.60;;
61785;SDS011;47692;53.714;11.372;2023-08-12T12:44:13;5.03;;;3.63;;
61785;SDS011;47692;53.714;11.372;2023-08-12T12:46:38;7.78;;;3.33;;
61785;SDS011;47692;53.714;11.372;2023-08-12T12:49:04;6.25;;;3.40;;
61785;SDS011;47692;53.714;11.372;2023-08-12T12:51:29;4.93;;;3.60;;
61785;SDS011;47692;53.714;11.372;2023-08-12T12:53:54;6.32;;;3.70;;
61785;SDS011;47692;53.714;11.372;2023-08-12T12:56:20;5.32;;;3.47;;
61785;SDS011;47692;53.714;11.372;2023-08-12T12:58:45;4.45;;;3.28;;
61785;SDS011;47692;53.714;11.372;2023-08-12T13:01:10;5.65;;;3.50;;
61785;SDS011;47692;53.714;11.372;2023-08-12T13:03:36;5.38;;;3.10;;
61785;SDS011;47692;53.714;11.372;2023-08-12T13:06:01;7.03;;;3.60;;
61785;SDS011;47692;53.714;11.372;2023-08-12T13:08:28;6.40;;;3.63;;
61785;SDS011;47692;53.714;11.372;2023-08-12T13:10:54;5.47;;;3.97;;
61785;SDS011;47692;53.714;11.372;2023-08-12T13:13:19;6.30;;;3.63;;
61785;SDS011;47692;53.714;11.372;2023-08-12T13:15:45;8.10;;;4.00;;
61785;SDS011;47692;53.714;11.372;2023-08-12T13:18:11;6.97;;;3.70;;
61785;SDS011;47692;53.714;11.372;2023-08-12T13:20:37;5.43;;;3.72;;
61785;SDS011;47692;53.714;11.372;2023-08-12T13:23:03;6.28;;;4.00;;
61785;SDS011;47692;53.714;11.372;2023-08-12T13:25:32;6.03;;;4.00;;
61785;SDS011;47692;53.714;11.372;2023-08-12T13:27:59;4.97;;;3.67;;
61785;SDS011;47692;53.714;11.372;2023-08-12T13:30:25;5.47;;;3.78;;
61785;SDS011;47692;53.714;11.372;2023-08-12T13:32:51;7.72;;;4.25;;
61785;SDS011;47692;53.714;11.372;2023-08-12T13:35:17;5.05;;;3.67;;
61785;SDS011;47692;53.714;11.372;2023-08-12T13:37:42;5.80;;;3.83;;
61785;SDS011;47692;53.714;11.372;2023-08-12T13:40:08;5.53;;;4.18;;
61785;SDS011;47692;53.714;11.372;2023-08-12T13:42:34;5.15;;;3.90;;
61785;SDS011;47692;53.714;11.372;2023-08-12T13:45:00;6.50;;;3.80;;
61785;SDS011;47692;53.714;11.372;2023-08-12T13:47:25;5.82;;;3.92;;
61785;SDS011;47692;53.714;11.372;2023-08-12T13:49:50;5.43;;;4.00;;
61785;SDS011;47692;53.714;11.372;2023-08-12T13:52:16;5.88;;;3.92;;
61785;SDS011;47692;53.714;11.372;2023-08-12T13:54:42;8.23;;;4.38;;
61785;SDS011;47692;53.714;11.372;2023-08-12T13:57:07;22.30;;;8.73;;
61785;SDS011;47692;53.714;11.372;2023-08-12T13:59:32;13.40;;;6.00;;
61785;SDS011;47692;53.714;11.372;2023-08-12T14:01:57;14.32;;;6.47;;
61785;SDS011;47692;53.714;11.372;2023-08-12T14:04:23;13.00;;;6.28;;
61785;SDS011;47692;53.714;11.372;2023-08-12T14:06:48;5.82;;;4.05;;
61785;SDS011;47692;53.714;11.372;2023-08-12T14:09:14;5.68;;;3.83;;
61785;SDS011;47692;53.714;11.372;2023-08-12T14:11:40;6.38;;;4.25;;
61785;SDS011;47692;53.714;11.372;2023-08-12T14:14:05;6.00;;;3.67;;
61785;SDS011;47692;53.714;11.372;2023-08-12T14:16:30;6.88;;;3.60;;
61785;SDS011;47692;53.714;11.372;2023-08-12T14:18:56;5.38;;;4.18;;
61785;SDS011;47692;53.714;11.372;2023-08-12T14:21:21;6.40;;;4.00;;
61785;SDS011;47692;53.714;11.372;2023-08-12T14:23:47;7.90;;;4.45;;
61785;SDS011;47692;53.714;11.372;2023-08-12T14:26:12;6.32;;;4.32;;
61785;SDS011;47692;53.714;11.372;2023-08-12T14:28:37;7.30;;;4.30;;
61785;SDS011;47692;53.714;11.372;2023-08-12T14:31:02;7.30;;;4.50;;
61785;SDS011;47692;53.714;11.372;2023-08-12T14:33:28;8.27;;;4.45;;
61785;SDS011;47692;53.714;11.372;2023-08-12T14:35:56;6.28;;;4.20;;